createdAt,value
2022-09-25T00:00:29.384Z,10.78
2022-09-25T00:05:30.173Z,10.75
2022-09-25T00:10:32.439Z,10.61
2022-09-25T00:15:33.240Z,10.52
2022-09-25T00:20:36.527Z,10.48
2022-09-25T00:25:37.328Z,10.57
2022-09-25T00:30:39.854Z,10.62
2022-09-25T00:35:40.653Z,10.66
2022-09-25T00:40:41.492Z,10.71
2022-09-25T00:45:43.439Z,10.71
2022-09-25T00:50:51.687Z,10.71
2022-09-25T00:55:54.198Z,10.63
2022-09-25T01:00:55.194Z,10.72
2022-09-25T01:05:59.522Z,10.73
2022-09-25T01:11:00.781Z,10.71
2022-09-25T01:16:26.431Z,10.73
2022-09-25T01:21:41.954Z,10.68
2022-09-25T01:30:03.295Z,10.69
2022-09-25T01:35:12.769Z,10.71
2022-09-25T01:40:34.703Z,10.73
2022-09-25T01:45:48.661Z,10.69
2022-09-25T01:51:03.539Z,10.73
2022-09-25T01:56:13.583Z,10.74
2022-09-25T02:01:22.407Z,10.68
2022-09-25T02:06:24.757Z,10.70
2022-09-25T02:11:30.994Z,10.65
2022-09-25T02:16:37.892Z,10.62
2022-09-25T02:21:48.714Z,10.57
2022-09-25T02:26:50.218Z,10.67
2022-09-25T02:31:57.136Z,10.56
2022-09-25T02:36:58.701Z,10.58
2022-09-25T02:45:11.003Z,10.59
2022-09-25T02:50:27.565Z,10.62
2022-09-25T02:57:04.454Z,10.64
2022-09-25T03:02:05.958Z,10.58
2022-09-25T03:07:07.429Z,10.50
2022-09-25T03:12:08.206Z,10.52
2022-09-25T03:17:10.845Z,10.46
2022-09-25T03:22:15.393Z,10.23
2022-09-25T03:27:16.820Z,10.27
2022-09-25T03:32:17.677Z,10.34
2022-09-25T03:37:18.461Z,10.36
2022-09-25T03:42:19.260Z,10.33
2022-09-25T03:47:20.067Z,10.44
2022-09-25T03:52:21.172Z,10.51
2022-09-25T03:57:22.181Z,10.57
2022-09-25T04:02:23.053Z,10.48
2022-09-25T04:07:24.308Z,10.45
2022-09-25T04:12:25.664Z,10.49
2022-09-25T04:17:28.921Z,10.53
2022-09-25T04:22:29.790Z,10.32
2022-09-25T04:27:31.606Z,10.43
2022-09-25T04:32:51.144Z,10.38
2022-09-25T04:37:51.880Z,10.43
2022-09-25T04:42:57.265Z,10.45
2022-09-25T04:47:59.660Z,10.47
2022-09-25T04:53:00.930Z,10.52
2022-09-25T04:58:01.743Z,10.55
2022-09-25T05:03:03.789Z,10.57
2022-09-25T05:08:04.667Z,10.56
2022-09-25T05:13:05.440Z,10.52
2022-09-25T05:18:17.724Z,10.53
2022-09-25T05:23:18.599Z,10.56
2022-09-25T05:28:19.475Z,10.48
2022-09-25T05:33:20.502Z,10.46
2022-09-25T05:38:21.263Z,10.50
2022-09-25T05:43:22.145Z,10.39
2022-09-25T05:48:22.984Z,10.35
2022-09-25T05:53:24.305Z,10.46
2022-09-25T05:58:27.119Z,10.53
2022-09-25T06:03:28.816Z,10.64
2022-09-25T06:08:34.722Z,10.68
2022-09-25T06:13:36.171Z,10.73
2022-09-25T06:18:36.923Z,10.80
2022-09-25T06:23:37.819Z,10.85
2022-09-25T06:28:38.914Z,10.81
2022-09-25T06:33:41.208Z,10.79
2022-09-25T06:38:41.927Z,10.92
2022-09-25T06:43:42.695Z,10.97
2022-09-25T06:48:44.121Z,10.93
2022-09-25T06:53:45.188Z,10.98
2022-09-25T06:58:46.860Z,10.99
2022-09-25T07:03:49.353Z,11.09
2022-09-25T07:08:51.349Z,11.10
2022-09-25T07:13:54.260Z,11.19
2022-09-25T07:19:00.229Z,11.37
2022-09-25T07:24:01.297Z,11.30
2022-09-25T07:29:05.668Z,11.36
2022-09-25T07:34:11.835Z,11.39
2022-09-25T07:39:17.682Z,11.30
2022-09-25T07:44:38.372Z,11.17
2022-09-25T07:49:39.518Z,11.12
2022-09-25T07:54:40.295Z,11.28
2022-09-25T07:59:41.106Z,11.53
2022-09-25T08:04:43.202Z,11.36
2022-09-25T08:09:43.938Z,11.37
2022-09-25T08:14:44.714Z,11.36
2022-09-25T08:19:45.698Z,11.50
2022-09-25T08:24:47.896Z,11.47
2022-09-25T08:29:48.696Z,11.49
2022-09-25T08:34:49.965Z,11.69
2022-09-25T08:39:50.770Z,11.72
2022-09-25T08:49:01.327Z,11.76
2022-09-25T08:54:03.457Z,11.59
2022-09-25T08:59:30.083Z,11.68
2022-09-25T09:04:36.273Z,11.85
2022-09-25T09:10:06.398Z,11.95
2022-09-25T09:18:04.693Z,11.98
2022-09-25T09:23:12.170Z,11.80
2022-09-25T09:29:14.592Z,11.97
2022-09-25T09:35:07.121Z,12.08
2022-09-25T09:40:46.264Z,12.00
2022-09-25T09:46:43.925Z,12.11
2022-09-25T09:52:01.332Z,12.09
2022-09-25T09:57:54.216Z,12.02
2022-09-25T10:09:43.776Z,11.75
2022-09-25T10:14:47.039Z,11.85
2022-09-25T10:19:55.488Z,11.77
2022-09-25T10:25:04.434Z,11.86
2022-09-25T10:30:23.613Z,11.86
2022-09-25T10:35:45.152Z,11.80
2022-09-25T10:40:58.659Z,11.74
2022-09-25T10:46:13.196Z,11.53
2022-09-25T10:51:17.468Z,11.38
2022-09-25T10:56:32.255Z,11.20
2022-09-25T11:01:39.842Z,11.07
2022-09-25T11:06:51.603Z,11.01
2022-09-25T11:12:05.611Z,11.10
2022-09-25T11:17:32.657Z,11.03
2022-09-25T11:22:36.753Z,10.94
2022-09-25T11:28:05.264Z,11.05
2022-09-25T11:33:21.357Z,11.12
2022-09-25T11:41:15.645Z,11.39
2022-09-25T11:46:27.790Z,11.23
2022-09-25T11:51:57.379Z,11.32
2022-09-25T11:57:09.578Z,11.43
2022-09-25T12:03:06.987Z,11.50
2022-09-25T12:08:27.737Z,11.52
2022-09-25T12:14:14.231Z,11.40
2022-09-25T12:19:27.535Z,11.41
2022-09-25T12:27:06.197Z,11.16
2022-09-25T12:34:10.970Z,11.18
2022-09-25T12:40:48.560Z,11.12
2022-09-25T12:45:57.931Z,11.09
2022-09-25T12:51:16.638Z,11.05
2022-09-25T12:56:36.703Z,11.24
2022-09-25T13:02:01.578Z,11.47
2022-09-25T13:07:23.163Z,11.62
2022-09-25T13:12:34.783Z,11.47
2022-09-25T13:17:37.426Z,11.53
2022-09-25T13:22:41.245Z,11.37
2022-09-25T13:27:45.603Z,11.46
2022-09-25T13:32:52.184Z,11.45
2022-09-25T13:37:56.518Z,11.45
2022-09-25T13:43:23.649Z,11.40
2022-09-25T13:48:43.197Z,11.33
2022-09-25T13:54:02.969Z,11.24
2022-09-25T13:59:21.044Z,11.18
2022-09-25T14:04:35.513Z,11.15
2022-09-25T14:09:43.089Z,11.09
2022-09-25T14:14:54.744Z,10.96
2022-09-25T14:19:58.434Z,10.91
2022-09-25T14:25:01.266Z,10.81
2022-09-25T14:30:10.418Z,10.85
2022-09-25T14:35:38.767Z,10.79
2022-09-25T14:40:56.607Z,10.60
2022-09-25T14:46:19.234Z,10.54
2022-09-25T14:51:56.623Z,10.63
2022-09-25T14:56:58.607Z,10.56
2022-09-25T15:02:02.366Z,10.54
2022-09-25T15:07:25.210Z,10.59
2022-09-25T15:12:33.084Z,10.59
2022-09-25T15:17:43.378Z,10.59
2022-09-25T15:22:52.126Z,11.06
2022-09-25T15:27:53.016Z,10.86
2022-09-25T15:33:00.547Z,10.76
2022-09-25T15:38:12.308Z,10.71
2022-09-25T15:43:15.499Z,10.76
2022-09-25T15:48:31.852Z,10.76
2022-09-25T15:53:43.069Z,10.75
2022-09-25T15:58:51.368Z,10.79
2022-09-25T16:04:11.611Z,10.83
2022-09-25T16:09:29.672Z,10.83
2022-09-25T16:14:30.731Z,11.03
2022-09-25T16:19:33.440Z,11.21
2022-09-25T16:24:34.640Z,11.10
2022-09-25T16:29:39.911Z,11.12
2022-09-25T16:34:48.720Z,11.13
2022-09-25T16:40:15.690Z,11.14
2022-09-25T16:45:27.303Z,11.06
2022-09-25T16:50:32.586Z,11.11
2022-09-25T16:55:37.429Z,11.12
2022-09-25T17:00:38.228Z,10.91
2022-09-25T17:05:39.338Z,10.93
2022-09-25T17:10:40.547Z,10.88
2022-09-25T17:15:42.172Z,10.88
2022-09-25T17:20:43.091Z,10.79
2022-09-25T17:25:48.929Z,10.79
2022-09-25T17:30:49.710Z,10.61
2022-09-25T17:36:02.627Z,10.49
2022-09-25T17:41:21.155Z,10.39
2022-09-25T17:46:22.731Z,10.23
2022-09-25T17:51:28.522Z,10.15
2022-09-25T17:56:31.033Z,10.02
2022-09-25T18:01:38.363Z,9.95
2022-09-25T18:06:42.701Z,9.85
2022-09-25T18:11:44.065Z,9.72
2022-09-25T18:16:45.160Z,9.64
2022-09-25T18:22:04.617Z,9.55
2022-09-25T18:27:05.672Z,9.50
2022-09-25T18:32:07.277Z,9.52
2022-09-25T18:37:08.680Z,9.51
2022-09-25T18:42:09.517Z,9.64
2022-09-25T18:47:10.924Z,9.47
2022-09-25T18:52:12.071Z,9.42
2022-09-25T18:57:13.399Z,9.39
2022-09-25T19:02:26.031Z,9.32
2022-09-25T19:07:28.559Z,9.24
2022-09-25T19:12:30.487Z,9.10
2022-09-25T19:17:31.558Z,9.02
2022-09-25T19:22:32.786Z,8.98
2022-09-25T19:27:33.551Z,8.87
2022-09-25T19:32:34.324Z,8.85
2022-09-25T19:37:35.203Z,8.92
2022-09-25T19:42:36.679Z,8.98
2022-09-25T19:47:37.451Z,8.99
2022-09-25T19:52:38.388Z,8.86
2022-09-25T19:57:39.144Z,8.93
2022-09-25T20:02:44.181Z,9.01
2022-09-25T20:07:45.280Z,9.01
2022-09-25T20:12:46.083Z,9.06
2022-09-25T20:17:47.641Z,9.09
2022-09-25T20:22:48.409Z,9.19
2022-09-25T20:27:50.296Z,9.19
2022-09-25T20:32:51.726Z,9.27
2022-09-25T20:37:52.701Z,9.36
2022-09-25T20:42:53.485Z,9.33
2022-09-25T20:47:54.420Z,9.17
2022-09-25T20:52:56.536Z,9.11
2022-09-25T20:57:57.829Z,8.94
2022-09-25T21:02:59.325Z,8.86
2022-09-25T21:08:01.403Z,8.76
2022-09-25T21:13:04.535Z,8.68
2022-09-25T21:18:05.609Z,8.65
2022-09-25T21:23:06.393Z,8.60
2022-09-25T21:28:07.156Z,8.54
2022-09-25T21:33:07.974Z,8.56
2022-09-25T21:38:09.058Z,8.55
2022-09-25T21:43:10.747Z,8.41
2022-09-25T21:48:11.727Z,8.26
2022-09-25T21:53:12.662Z,8.16
2022-09-25T21:58:13.853Z,8.12
2022-09-25T22:03:14.705Z,8.00
2022-09-25T22:08:15.605Z,8.01
2022-09-25T22:13:16.349Z,7.98
2022-09-25T22:18:17.108Z,7.97
2022-09-25T22:23:19.707Z,8.04
2022-09-25T22:28:20.703Z,8.03
2022-09-25T22:33:21.494Z,7.95
2022-09-25T22:38:22.355Z,7.84
2022-09-25T22:43:23.189Z,7.80
2022-09-25T22:48:23.941Z,7.84
2022-09-25T22:53:25.933Z,7.84
2022-09-25T22:58:26.778Z,7.87
2022-09-25T23:03:28.280Z,7.83
2022-09-25T23:08:30.494Z,7.78
2022-09-25T23:13:31.833Z,7.78
2022-09-25T23:18:36.224Z,7.70
2022-09-25T23:23:37.238Z,7.69
2022-09-25T23:28:39.669Z,7.65
2022-09-25T23:33:42.002Z,7.61
2022-09-25T23:38:43.600Z,7.43
2022-09-25T23:43:45.831Z,7.43
2022-09-25T23:48:47.242Z,7.42
2022-09-25T23:53:49.179Z,7.36
2022-09-25T23:58:50.770Z,7.30
